• Join FlightAware (Why Join?)
  • Login
  • US Flag 
07:23PM EDT


 

Airport Tracker/Info


-or-


 

Live Flight TrackerFlight Track Log ✈ ACA831 ✈ 26-Apr-2013 ✈ LSGG / GVA - CYUL

Flight Track Log - Related Links

Times and Time Zones

All times are in EDT time to prevent confusion due to time zone crossing. See the ACA831 flight status page for this flight to view local times or setup timezone preferences in your user account.

Time Position Orientation Groundspeed Altitude Reporting Facility
EDT Latitude Longitude Course Direction KTS MPH feet Rate Location/Type
06:24AM 46.2330 6.1010 226° Southwest 170 196 1,700  Level FlightAware
06:24AM 46.2140 6.0750 223° Southwest 181 208 3,100 2,460 Climbing FlightAware
06:25AM 46.2000 6.0540 226° Southwest 186 214 4,000 2,280 Climbing FlightAware
06:25AM 46.1810 6.0250 227° Southwest 187 215 5,200 2,280 Climbing FlightAware
06:26AM 46.1650 6.0020 225° Southwest 195 224 6,100 2,160 Climbing FlightAware
06:26AM 46.1470 5.9740 227° Southwest 193 222 7,200 1,860 Climbing FlightAware
06:27AM 46.1390 5.9550 239° Southwest 216 249 7,500 720 Climbing FlightAware
06:27AM 46.1440 5.9250 284° West 246 283 7,700 660 Climbing FlightAware
06:27AM 46.1510 5.9140 313° West 260 299 7,900 1,560 Climbing FlightAware
06:27AM 46.1760 5.9020 342° North 282 325 8,500 2,100 Climbing FlightAware
06:28AM 46.2100 5.9100 North 300 345 9,300 1,920 Climbing FlightAware
06:29AM 46.2800 5.9090 359° North 326 375 10,800 1,500 Climbing FlightAware
06:29AM 46.3370 5.8640 331° Northwest 370 426 11,600 1,620 Climbing FlightAware
06:30AM 46.3990 5.8140 331° Northwest 397 457 13,000 2,400 Climbing FlightAware
06:31AM 46.4790 5.7490 331° Northwest 411 473 15,000 2,460 Climbing FlightAware
06:31AM 46.5460 5.6940 331° Northwest 424 488 16,500 2,520 Climbing FlightAware
06:32AM 46.6150 5.6370 330° Northwest 415 478 18,600 2,520 Climbing FlightAware
06:33AM 46.6860 5.5790 331° Northwest 422 486 20,100 2,100 Climbing FlightAware
06:34AM 46.7640 5.5140 330° Northwest 428 493 21,600 1,500 Climbing FlightAware
06:34AM 46.8250 5.4400 320° Northwest 443 510 22,300 1,320 Climbing FlightAware
06:35AM 46.8910 5.3430 315° West 456 525 23,500 1,680 Climbing FlightAware
06:36AM 46.9510 5.2540 315° West 461 531 24,700 1,620 Climbing FlightAware
06:36AM 47.0120 5.1640 315° West 468 539 25,700 1,500 Climbing FlightAware
06:37AM 47.0820 5.0600 315° West 473 544 26,900 1,620 Climbing FlightAware
06:38AM 47.1390 4.9740 314° West 473 544 28,000 1,680 Climbing FlightAware
06:38AM 47.2080 4.8710 315° West 466 536 29,300 1,500 Climbing FlightAware
06:39AM 47.2660 4.7830 314° West 468 539 30,200 1,320 Climbing FlightAware
06:40AM 47.3300 4.6860 314° West 475 547 31,100 1,020 Climbing FlightAware
06:41AM 47.4030 4.5760 314° West 481 554 31,700 600 Climbing FlightAware
06:41AM 47.4590 4.4900 314° West 482 555 32,000 180 Climbing FlightAware
06:42AM 47.5330 4.3770 314° West 475 547 32,000  Level FlightAware
06:43AM 47.5830 4.2990 314° West 471 542 32,000  Level FlightAware
06:43AM 47.6540 4.1900 314° West 470 541 32,000  Level FlightAware
06:44AM 47.7210 4.0860 314° West 467 537 32,000  Level FlightAware
06:45AM 47.7810 3.9940 314° West 466 536 32,000  Level FlightAware
06:45AM 47.8410 3.9010 314° West 466 536 32,000  Level FlightAware
06:46AM 47.9060 3.7990 314° West 466 536 32,000  Level FlightAware
06:47AM 47.9680 3.7000 313° West 466 536 32,000  Level FlightAware
06:48AM 48.0320 3.6000 314° West 466 536 32,000  Level FlightAware
06:48AM 48.1000 3.4920 313° West 466 536 32,000  Level FlightAware
06:49AM 48.1580 3.4000 313° West 465 535 32,000  Level FlightAware
06:50AM 48.2230 3.2930 312° West 460 529 32,000  Level FlightAware
06:50AM 48.2573 3.2094 302° West 452 520 32,000  Level FlightAware ADS-B
06:50AM 48.2633 3.1891 294° West 449 517 32,000  Level FlightAware ADS-B
06:51AM 48.2729 3.1484 290° West 444 511 32,000  Level FlightAware ADS-B
06:51AM 48.2923 3.0584 288° West 444 511 32,000  Level FlightAware ADS-B
06:52AM 48.3118 2.9664 288° West 443 510 32,000  Level FlightAware ADS-B
06:52AM 48.3420 2.8230 288° West 442 509 32,000  Level FlightAware
06:53AM 48.3484 2.7903 286° West 443 510 32,000  Level FlightAware ADS-B
06:53AM 48.3669 2.7008 287° West 442 509 32,000  Level FlightAware ADS-B
06:54AM 48.3857 2.6093 287° West 442 509 32,000  Level FlightAware ADS-B
06:54AM 48.4174 2.4544 287° West 442 509 32,000  Level FlightAware ADS-B
06:55AM 48.4356 2.3647 287° West 440 506 32,000  Level FlightAware ADS-B
06:56AM 48.4537 2.2748 287° West 441 507 32,000  Level FlightAware ADS-B
06:56AM 48.4719 2.1847 287° West 441 507 32,000  Level FlightAware ADS-B
06:57AM 48.4908 2.0906 287° West 441 507 32,000  Level FlightAware ADS-B
06:57AM 48.5107 1.9928 287° West 440 506 32,000  Level FlightAware ADS-B
06:58AM 48.5296 1.8992 287° West 439 505 32,000 -1,800 Level FlightAware ADS-B
06:58AM 48.5416 1.8418 287° West 462 532 30,500  Descending FlightAware UK
06:58AM 48.5487 1.8042 287° West 439 505 32,000  Climbing FlightAware ADS-B
06:59AM 48.5622 1.7362 287° West 460 529 30,500  Descending FlightAware UK
06:59AM 48.5695 1.6996 287° West 438 504 32,000 1,680 Climbing FlightAware ADS-B
06:59AM 48.5890 1.6040 287° West 435 501 32,000 -1,560 Level FlightAware
07:00AM 48.6042 1.5267 287° West 460 529 30,500  Descending FlightAware UK
07:00AM 48.6120 1.4850 287° West 434 499 32,000  Climbing FlightAware
07:00AM 48.6245 1.4222 287° West 458 527 30,500 -2,760 Descending FlightAware UK
07:01AM 48.6347 1.3697 286° West 460 529 30,500  Level FlightAware UK
07:01AM 48.6449 1.3172 286° West 460 529 30,500 2,100 Level FlightAware UK
07:01AM 48.6580 1.2530 286° West 435 501 32,000  Climbing FlightAware
07:02AM 48.6718 1.1770 286° West 462 532 30,500  Descending FlightAware UK
07:02AM 48.6800 1.1350 286° West 434 499 32,000 3,900 Climbing FlightAware
07:02AM 48.6850 1.1116 288° West 436 502 32,000 -3,480 Level FlightAware ADS-B
07:02AM 48.6956 1.0548 288° West 464 534 30,500  Descending FlightAware UK
07:03AM 48.7020 1.0230 288° West 434 499 32,000 4,680 Climbing FlightAware
07:03AM 48.7061 1.0026 287° West 434 499 32,000 -4,140 Level FlightAware ADS-B
07:03AM 48.7160 0.9510 287° West 462 532 30,500  Descending FlightAware UK
07:03AM 48.7270 0.8900 287° West 433 498 32,000  Climbing FlightAware
07:04AM 48.7392 0.8290 287° West 462 532 30,500 -2,460 Descending FlightAware UK
07:04AM 48.7490 0.7773 286° West 460 529 30,500 4,260 Level FlightAware UK
07:04AM 48.7490 0.7790 286° West 432 497 32,000  Climbing FlightAware
07:05AM 48.7654 0.6900 286° West 462 532 30,500  Descending FlightAware UK
07:05AM 48.7680 0.6780 286° West 432 497 32,000  Climbing FlightAware
07:05AM 48.7884 0.5677 286° West 456 525 30,500  Descending FlightAware UK
07:06AM 48.7970 0.5240 286° West 432 497 32,000 1,560 Climbing FlightAware
07:06AM 48.8180 0.4090 286° West 432 497 32,000 -1,620 Level FlightAware
07:06AM 48.8276 0.3598 286° West 456 525 30,500 -2,700 Descending FlightAware UK
07:07AM 48.8372 0.3074 286° West 456 525 30,500 3,060 Level FlightAware UK
07:07AM 48.8420 0.2830 286° West 433 498 32,000  Climbing FlightAware
07:08AM 48.8630 0.1673 286° West 458 527 30,500  Descending FlightAware UK
07:08AM 48.8620 0.1740 286° West 433 498 32,000 2,340 Climbing FlightAware
07:08AM 48.8830 0.0580 285° West 433 498 32,000 -1,620 Level FlightAware
07:09AM 48.8947 -0.0078 285° West 460 529 30,500 -2,340 Descending FlightAware UK
07:09AM 48.9041 -0.0601 285° West 462 532 30,500 3,060 Level FlightAware UK
07:09AM 48.9090 -0.0840 285° West 433 498 32,000  Climbing FlightAware
07:10AM 48.9264 -0.1834 285° West 462 532 30,500  Descending FlightAware UK
07:10AM 48.9300 -0.2030 285° West 433 498 32,000  Climbing FlightAware
07:10AM 48.9390 -0.2539 285° West 464 534 30,500  Descending FlightAware UK
07:10AM 48.9520 -0.3220 285° West 433 498 32,000  Climbing FlightAware
07:11AM 48.9610 -0.3765 285° West 460 529 30,500 -2,580 Descending FlightAware UK
07:11AM 48.9704 -0.4293 285° West 458 527 30,500 3,180 Level FlightAware UK
07:11AM 48.9720 -0.4350 285° West 432 497 32,000 1,620 Climbing FlightAware
07:12AM 48.9970 -0.5750 285° West 431 496 32,000 -1,140 Level FlightAware
07:12AM 49.0167 -0.6923 285° West 462 532 30,500  Descending FlightAware UK
07:13AM 49.0240 -0.7300 285° West 431 496 32,000  Climbing FlightAware
07:13AM 49.0441 -0.8496 285° West 462 532 30,500  Descending FlightAware UK
07:13AM 49.0460 -0.8540 285° West 428 493 32,000  Climbing FlightAware
07:14AM 49.0654 -0.9723 285° West 466 536 30,500  Descending FlightAware UK
07:14AM 49.0670 -0.9780 285° West 427 491 32,000  Climbing FlightAware
07:14AM 49.0775 -1.0422 285° West 468 539 30,500  Descending FlightAware UK
07:15AM 49.0840 -1.0770 285° West 426 490 32,000  Climbing FlightAware
07:15AM 49.0865 -1.0946 285° West 468 539 30,500 -6,000 Descending FlightAware UK
07:15AM 49.0925 -1.1295 285° West 468 539 30,500  Level FlightAware UK
07:15AM 49.1013 -1.1818 284° West 464 534 30,500  Level FlightAware UK
07:16AM 49.1102 -1.2333 285° West 466 536 30,500  Level FlightAware UK
07:16AM 49.1219 -1.3026 284° West 464 534 30,500 1,980 Level FlightAware UK
07:16AM 49.1290 -1.3440 284° West 420 483 32,000  Climbing FlightAware
07:17AM 49.1424 -1.4229 284° West 464 534 30,500  Descending FlightAware UK
07:17AM 49.1560 -1.5030 284° West 417 480 32,000 1,200 Climbing FlightAware
07:18AM 49.1760 -1.6250 284° West 416 479 32,000  Level FlightAware
07:19AM 49.1950 -1.7390 284° West 413 475 32,000 -1,560 Level FlightAware
07:19AM 49.2049 -1.7973 284° West 458 527 30,500  Descending FlightAware UK
07:19AM 49.2160 -1.8640 284° West 411 473 32,000  Climbing FlightAware
07:20AM 49.2240 -1.9153 284° West 458 527 30,500  Descending FlightAware UK
07:20AM 49.2350 -1.9780 284° West 409 471 32,000  Climbing FlightAware
07:20AM 49.2439 -2.0332 284° West 458 527 30,500 -2,580 Descending FlightAware UK
07:21AM 49.2517 -2.0837 283° West 458 527 30,500 3,900 Level FlightAware UK
07:21AM 49.2500 -2.0770 283° West 407 468 32,000  Climbing FlightAware
07:21AM 49.2623 -2.1507 283° West 456 525 30,500 -2,460 Descending FlightAware UK
07:21AM 49.2701 -2.2001 284° West 458 527 30,500  Level FlightAware UK
07:22AM 49.2781 -2.2500 284° West 456 525 30,500 2,340 Level FlightAware UK
07:22AM 49.2830 -2.2780 284° West 407 468 32,000  Climbing FlightAware
07:22AM 49.2942 -2.3497 284° West 454 522 30,500  Descending FlightAware UK
07:22AM 49.2970 -2.3670 284° West 408 470 32,000  Climbing FlightAware
07:23AM 49.3075 -2.4335 284° West 454 522 30,500 -2,760 Descending FlightAware UK
07:23AM 49.3154 -2.4841 284° West 454 522 30,500  Level FlightAware UK
07:23AM 49.3232 -2.5347 283° West 456 525 30,500 2,760 Level FlightAware UK
07:23AM 49.3260 -2.5500 283° West 408 470 32,000  Climbing FlightAware
07:24AM 49.3392 -2.6365 283° West 458 527 30,500  Descending FlightAware UK
07:24AM 49.3450 -2.6740 283° West 412 474 32,000  Climbing FlightAware
07:25AM 49.3580 -2.7552 283° West 464 534 30,500  Descending FlightAware UK
07:25AM 49.3640 -2.7950 283° West 414 476 32,000  Climbing FlightAware
07:25AM 49.3735 -2.8580 283° West 466 536 30,500 -2,760 Descending FlightAware UK
07:25AM 49.3815 -2.9088 284° West 464 534 30,500  Level FlightAware UK
07:26AM 49.3896 -2.9607 283° West 464 534 30,500 4,080 Level FlightAware UK
07:26AM 49.3880 -2.9480 283° West 412 474 32,000  Climbing FlightAware
07:26AM 49.4052 -3.0630 283° West 462 532 30,500  Descending FlightAware UK
07:27AM 49.4080 -3.0810 283° West 415 478 32,000  Climbing FlightAware
07:27AM 49.4207 -3.1659 283° West 462 532 30,500  Descending FlightAware UK
07:27AM 49.4260 -3.2030 283° West 414 476 32,000  Climbing FlightAware
07:28AM 49.4361 -3.2685 283° West 460 529 30,500  Descending FlightAware UK
07:28AM 49.4440 -3.3190 283° West 414 476 32,000  Climbing FlightAware
07:28AM 49.4516 -3.3720 283° West 464 534 30,500 -2,340 Descending FlightAware UK
07:29AM 49.4620 -3.4412 283° West 466 536 30,500 3,000 Level FlightAware UK
07:29AM 49.4630 -3.4480 283° West 417 480 32,000  Climbing FlightAware
07:29AM 49.4723 -3.5107 283° West 466 536 30,500  Descending FlightAware UK
07:29AM 49.4800 -3.5610 283° West 417 480 32,000 1,320 Climbing FlightAware
07:30AM 49.5000 -3.6970 283° West 417 480 32,000  Level FlightAware
07:31AM 49.5150 -3.8020 282° West 417 480 32,000 -1,320 Level FlightAware
07:31AM 49.5309 -3.9104 282° West 466 536 30,500  Descending FlightAware UK
07:31AM 49.5320 -3.9200 282° West 416 479 32,000  Climbing FlightAware
07:32AM 49.5408 -3.9799 282° West 468 539 30,500 -2,340 Descending FlightAware UK
07:32AM 49.5506 -4.0494 282° West 468 539 30,500 3,000 Level FlightAware UK
07:32AM 49.5500 -4.0480 282° West 416 479 32,000  Climbing FlightAware
07:32AM 49.5604 -4.1189 282° West 466 536 30,500 -2,520 Descending FlightAware UK
07:33AM 49.5676 -4.1710 282° West 466 536 30,500 4,080 Level FlightAware UK
07:33AM 49.5670 -4.1680 282° West 416 479 32,000  Climbing FlightAware
07:33AM 49.5797 -4.2574 282° West 466 536 30,500  Descending FlightAware UK
07:34AM 49.5860 -4.2980 282° West 421 484 32,000  Climbing FlightAware
07:34AM 49.6034 -4.3594 282° West 468 539 30,500  Descending FlightAware UK
07:34AM 49.6200 -4.4030 282° West 438 504 32,000  Climbing FlightAware
07:35AM 49.6473 -4.4714 282° West 466 536 30,500 -2,520 Descending FlightAware UK
07:35AM 49.6670 -4.5190 303° West 468 539 30,500 4,080 Level FlightAware UK
07:35AM 49.6640 -4.5110 303° West 436 502 32,000  Climbing FlightAware
07:35AM 49.6935 -4.5823 303° West 466 536 30,500  Descending FlightAware UK
07:36AM 49.7150 -4.6340 303° West 434 499 32,000  Climbing FlightAware
07:36AM 49.7390 -4.6934 303° West 464 534 30,500  Descending FlightAware UK
07:36AM 49.7570 -4.7380 303° West 435 501 32,000  Climbing FlightAware
07:37AM 49.7840 -4.8044 303° West 466 536 30,500 -2,460 Descending FlightAware UK
07:37AM 49.8037 -4.8527 302° West 466 536 30,500 3,420 Level FlightAware UK
07:37AM 49.8050 -4.8560 302° West 433 498 32,000  Climbing FlightAware
07:37AM 49.8292 -4.9159 302° West 464 534 30,500 -2,700 Descending FlightAware UK
07:38AM 49.8484 -4.9637 302° West 466 536 30,500 3,720 Level FlightAware UK
07:38AM 49.8480 -4.9630 302° West 437 503 32,000  Climbing FlightAware
07:38AM 49.8739 -5.0275 302° West 464 534 30,500 -2,520 Descending FlightAware UK
07:38AM 49.8930 -5.0753 302° West 464 534 30,500 4,080 Level FlightAware UK
07:38AM 49.8890 -5.0660 302° West 436 502 32,000  Climbing FlightAware
07:39AM 49.9184 -5.1390 302° West 462 532 30,500 -2,400 Descending FlightAware UK
07:39AM 49.9374 -5.1869 302° West 464 534 30,500 3,600 Level FlightAware UK
07:39AM 49.9390 -5.1920 302° West 436 502 32,000  Climbing FlightAware
07:39AM 49.9628 -5.2507 302° West 464 534 30,500 -2,580 Descending FlightAware UK
07:40AM 49.9819 -5.2985 302° West 464 534 30,500 3,900 Level FlightAware UK
07:40AM 49.9800 -5.2930 302° West 436 502 32,000  Climbing FlightAware
07:40AM 50.0073 -5.3624 302° West 464 534 30,500 -2,460 Descending FlightAware UK
07:40AM 50.0262 -5.4104 302° West 466 536 30,500 3,420 Level FlightAware UK
07:41AM 50.0290 -5.4180 302° West 436 502 32,000  Climbing FlightAware
07:41AM 50.0514 -5.4743 302° West 466 536 30,500 -2,700 Descending FlightAware UK
07:41AM 50.0703 -5.5223 302° West 466 536 30,500 3,720 Level FlightAware UK
07:41AM 50.0690 -5.5190 302° West 435 501 32,000  Climbing FlightAware
07:42AM 50.0955 -5.5864 302° West 468 539 30,500 -2,520 Descending FlightAware UK
07:42AM 50.1143 -5.6345 301° West 470 541 30,500 4,080 Level FlightAware UK
07:42AM 50.1130 -5.6320 301° West 435 501 32,000  Climbing FlightAware
07:42AM 50.1394 -5.6986 301° West 466 536 30,500 -2,400 Descending FlightAware UK
07:43AM 50.1583 -5.7465 302° West 466 536 30,500 3,600 Level FlightAware UK
07:43AM 50.1630 -5.7590 302° West 434 499 32,000  Climbing FlightAware
07:43AM 50.1832 -5.8106 302° West 466 536 30,500 -2,580 Descending FlightAware UK
07:43AM 50.2019 -5.8587 301° West 466 536 30,500 3,900 Level FlightAware UK
07:43AM 50.2030 -5.8630 301° West 433 498 32,000  Climbing FlightAware
07:44AM 50.2265 -5.9223 301° West 468 539 30,500 -2,460 Descending FlightAware UK
07:44AM 50.2450 -5.9703 301° West 468 539 30,500 3,420 Level FlightAware UK
07:44AM 50.2510 -5.9840 301° West 433 498 32,000  Climbing FlightAware
07:44AM 50.2698 -6.0346 301° West 466 536 30,500 -2,700 Descending FlightAware UK
07:45AM 50.2883 -6.0825 301° West 466 536 30,500 3,720 Level FlightAware UK
07:45AM 50.2900 -6.0870 301° West 431 496 32,000  Climbing FlightAware
07:45AM 50.3129 -6.1467 301° West 466 536 30,500 -2,520 Descending FlightAware UK
07:45AM 50.3314 -6.1946 301° West 466 536 30,500 4,080 Level FlightAware UK
07:45AM 50.3330 -6.1980 301° West 431 496 32,000  Climbing FlightAware
07:46AM 50.3559 -6.2587 301° West 466 536 30,500 -2,400 Descending FlightAware UK
07:46AM 50.3743 -6.3068 301° West 466 536 30,500 3,600 Level FlightAware UK
07:46AM 50.3780 -6.3170 301° West 430 495 32,000  Climbing FlightAware
07:46AM 50.3987 -6.3708 301° West 466 536 30,500 -2,580 Descending FlightAware UK
07:47AM 50.4167 -6.4191 300° West 466 536 30,500 3,900 Level FlightAware UK
07:47AM 50.4170 -6.4250 300° West 427 491 32,000  Climbing FlightAware
07:47AM 50.4340 -6.4879 300° West 466 536 30,500 -2,460 Descending FlightAware UK
07:47AM 50.4463 -6.5395 290° West 466 536 30,500 3,420 Level FlightAware UK
07:48AM 50.4500 -6.5550 290° West 425 489 32,000  Climbing FlightAware
07:48AM 50.4621 -6.6090 290° West 464 534 30,500 -2,700 Descending FlightAware UK
07:48AM 50.4742 -6.6610 290° West 464 534 30,500 3,720 Level FlightAware UK
07:48AM 50.4770 -6.6710 290° West 423 487 32,000  Climbing FlightAware
07:49AM 50.4903 -6.7303 290° West 462 532 30,500 -2,520 Descending FlightAware UK
07:49AM 50.5021 -6.7824 290° West 464 534 30,500 4,080 Level FlightAware UK
07:49AM 50.5030 -6.7870 290° West 423 487 32,000  Climbing FlightAware
07:49AM 50.5176 -6.8518 290° West 464 534 30,500 -2,400 Descending FlightAware UK
07:50AM 50.5291 -6.9040 289° West 464 534 30,500 3,600 Level FlightAware UK
07:50AM 50.5310 -6.9150 289° West 422 486 32,000  Climbing FlightAware
07:50AM 50.5443 -6.9735 289° West 462 532 30,500 -2,580 Descending FlightAware UK
07:50AM 50.5557 -7.0256 289° West 462 532 30,500 3,900 Level FlightAware UK
07:50AM 50.5570 -7.0310 289° West 422 486 32,000  Climbing FlightAware
07:51AM 50.5709 -7.0944 289° West 464 534 30,500 -2,460 Descending FlightAware UK
07:51AM 50.5823 -7.1465 289° West 462 532 30,500 4,260 Level FlightAware UK
07:51AM 50.5830 -7.1470 289° West 422 486 32,000  Climbing FlightAware
07:51AM 50.5939 -7.1985 289° West 462 532 30,500 -2,760 Descending FlightAware UK
07:52AM 50.6055 -7.2506 289° West 462 532 30,500 3,000 Level FlightAware UK
07:52AM 50.6120 -7.2800 289° West 422 486 32,000  Climbing FlightAware
07:52AM 50.6244 -7.3376 289° West 462 532 30,500 -2,520 Descending FlightAware UK
07:52AM 50.6358 -7.3899 289° West 460 529 30,500 4,080 Level FlightAware UK
07:52AM 50.6360 -7.3920 289° West 423 487 32,000  Climbing FlightAware
07:53AM 50.6509 -7.4595 289° West 460 529 30,500 -2,400 Descending FlightAware UK
07:53AM 50.6622 -7.5118 289° West 460 529 30,500 3,600 Level FlightAware UK
07:53AM 50.6660 -7.5280 289° West 423 487 32,000  Climbing FlightAware
07:53AM 50.6774 -7.5817 289° West 462 532 30,500 -2,580 Descending FlightAware UK
07:54AM 50.6887 -7.6342 289° West 460 529 30,500 3,900 Level FlightAware UK
07:54AM 50.6910 -7.6430 289° West 424 488 32,000  Climbing FlightAware
07:54AM 50.7040 -7.7042 289° West 460 529 30,500 -2,460 Descending FlightAware UK
07:54AM 50.7153 -7.7569 289° West 458 527 30,500 3,420 Level FlightAware UK
07:55AM 50.7180 -7.7710 289° West 425 489 32,000  Climbing FlightAware
07:55AM 50.7303 -7.8272 289° West 460 529 30,500 -2,700 Descending FlightAware UK
07:55AM 50.7415 -7.8800 289° West 462 532 30,500 3,720 Level FlightAware UK
07:55AM 50.7440 -7.8920 289° West 425 489 32,000  Climbing FlightAware
07:56AM 50.7564 -7.9507 289° West 460 529 30,500 -2,520 Descending FlightAware UK
07:56AM 50.7676 -8.0037 288° West 458 527 30,500  Level FlightAware UK
07:56AM 50.7788 -8.0569 288° West 460 529 30,500 4,680 Level FlightAware UK
07:56AM 50.7780 -8.0510 288° West 427 491 32,000  Climbing FlightAware
07:56AM 50.7901 -8.1100 288° West 462 532 30,500 -2,580 Descending FlightAware UK
07:57AM 50.8014 -8.1633 289° West 462 532 30,500  Level FlightAware UK
07:57AM 50.8125 -8.2161 289° West 462 532 30,500 4,500 Level FlightAware UK
07:57AM 50.8130 -8.2170 289° West 429 494 32,000  Climbing FlightAware
07:57AM 50.8237 -8.2697 289° West 462 532 30,500 -2,700 Descending FlightAware UK
07:58AM 50.8349 -8.3235 288° West 464 534 30,500  Level FlightAware UK
07:58AM 50.8461 -8.3773 288° West 462 532 30,500 3,420 Level FlightAware UK
07:58AM 50.8490 -8.3940 288° West 432 497 32,000  Climbing FlightAware
07:58AM 50.8609 -8.4493 288° West 462 532 30,500 -2,700 Descending FlightAware UK
07:59AM 50.8720 -8.5034 288° West 464 534 30,500  Level FlightAware UK
07:59AM 50.8832 -8.5576 288° West 462 532 30,500 4,260 Level FlightAware UK
07:59AM 50.8820 -8.5510 288° West 434 499 32,000  Climbing FlightAware
07:59AM 50.8944 -8.6119 288° West 464 534 30,500 -2,760 Descending FlightAware UK
08:00AM 50.9055 -8.6664 288° West 468 539 30,500 3,600 Level FlightAware UK
08:00AM 50.9080 -8.6790 288° West 435 501 32,000  Climbing FlightAware
08:00AM 50.9206 -8.7390 288° West 468 539 30,500 -2,580 Descending FlightAware UK
08:00AM 50.9317 -8.7936 288° West 472 543 30,500 3,900 Level FlightAware UK
08:00AM 50.9310 -8.7900 288° West 436 502 32,000  Climbing FlightAware
08:01AM 50.9462 -8.8666 288° West 472 543 30,500 -2,460 Descending FlightAware UK
08:01AM 50.9571 -8.9213 288° West 470 541 30,500 4,260 Level FlightAware UK
08:01AM 50.9540 -8.9070 288° West 434 499 32,000  Climbing FlightAware
08:01AM 50.9681 -8.9759 288° West 470 541 30,500  Descending FlightAware UK
08:02AM 50.9830 -9.0490 288° West 434 499 32,000 1,380 Climbing FlightAware
08:02AM 51.0070 -9.1690 288° West 434 499 32,000  Level FlightAware
08:03AM 51.0460 -9.3640 288° West 433 498 32,000  Level FlightAware
08:04AM 51.0760 -9.5200 287° West 432 497 32,000  Level FlightAware
08:05AM 51.1010 -9.6470 287° West 429 494 32,000  Level FlightAware
08:06AM 51.1230 -9.7600 287° West 425 489 32,000  Level FlightAware
08:06AM 51.1500 -9.9010 287° West 425 489 32,000  Level FlightAware
08:07AM 51.1740 -10.0260 287° West 422 486 32,000  Level FlightAware
08:08AM 51.2020 -10.1790 286° West 421 484 32,000  Level FlightAware
08:09AM 51.2240 -10.2900 288° West 420 483 32,000  Level FlightAware
08:09AM 51.2480 -10.4180 287° West 419 482 32,000  Level FlightAware
08:10AM 51.2790 -10.5940 286° West 419 482 32,000  Level FlightAware
08:11AM 51.2960 -10.6960 285° West 419 482 32,000  Level FlightAware
08:12AM 51.3280 -10.8530 288° West 419 482 32,000  Level FlightAware
08:12AM 51.3440 -10.9500 285° West 419 482 32,000  Level FlightAware
08:13AM 51.3620 -11.0520 286° West 419 482 32,000  Level FlightAware
08:14AM 51.3830 -11.1790 285° West 419 482 32,000  Level FlightAware
08:15AM 51.4000 -11.2820 285° West 419 482 32,000  Level FlightAware
08:15AM 51.4170 -11.3840 285° West 419 482 32,000  Level FlightAware
08:16AM 51.4340 -11.4860 285° West 419 482 32,000  Level FlightAware
08:17AM 51.4510 -11.5880 285° West 419 482 32,000  Level FlightAware
08:17AM 51.4720 -11.7160 285° West 419 482 32,000  Level FlightAware
08:18AM 51.4890 -11.8180 285° West 419 482 32,000 2,100 Level FlightAware
08:19AM 51.5510 -12.1210 288° West 418 481 35,000 2,220 Climbing FlightAware
08:19AM 51.5700 -12.2290 286° West 416 479 35,000  Level FlightAware
08:20AM 51.5970 -12.3950 285° West 416 479 35,000  Level FlightAware
08:21AM 51.6120 -12.4970 283° West 416 479 35,000  Level FlightAware
08:22AM 51.6280 -12.5990 284° West 416 479 35,000  Level FlightAware
08:22AM 51.6440 -12.7020 284° West 416 479 35,000  Level FlightAware
08:23AM 51.6640 -12.8300 284° West 416 479 35,000  Level FlightAware
08:24AM 51.6800 -12.9320 284° West 416 479 35,000  Level FlightAware
08:25AM 51.6950 -13.0340 283° West 416 479 35,000  Level FlightAware
08:25AM 51.7110 -13.1370 284° West 416 479 35,000  Level FlightAware
08:26AM 51.7270 -13.2390 284° West 416 479 35,000  Level FlightAware
08:27AM 51.7470 -13.3670 284° West 416 479 35,000  Level FlightAware
08:27AM 51.7630 -13.4700 284° West 416 479 35,000  Level FlightAware
08:28AM 51.7780 -13.5730 283° West 416 479 35,000  Level FlightAware
08:29AM 51.7940 -13.6750 284° West 416 479 35,000  Level FlightAware
08:29AM 51.8100 -13.7780 284° West 416 479 35,000  Level FlightAware
08:32AM 51.8754 -14.1719 285° West  Level Estimated
08:33AM 51.9056 -14.3570 285° West  Level Estimated
08:34AM 51.9355 -14.5423 285° West  Level Estimated
08:35AM 51.9651 -14.7278 285° West  Level Estimated
08:36AM 51.9944 -14.9136 284° West  Level Estimated
08:37AM 52.0234 -15.0997 284° West  Level Estimated
08:38AM 52.0521 -15.2859 284° West  Level Estimated
08:39AM 52.0806 -15.4724 284° West  Level Estimated
08:40AM 52.1087 -15.6592 284° West  Level Estimated
08:41AM 52.1366 -15.8462 284° West  Level Estimated
08:42AM 52.1641 -16.0334 284° West  Level Estimated
08:43AM 52.1914 -16.2208 283° West  Level Estimated
08:44AM 52.2183 -16.4085 283° West  Level Estimated
08:45AM 52.2450 -16.5964 283° West  Level Estimated
08:46AM 52.2714 -16.7845 283° West  Level Estimated
08:47AM 52.2974 -16.9729 283° West  Level Estimated
08:48AM 52.3239 -17.1667 283° West  Level Estimated
08:49AM 52.3501 -17.3608 283° West  Level Estimated
08:50AM 52.3759 -17.5551 282° West  Level Estimated
08:51AM 52.4014 -17.7497 282° West  Level Estimated
08:52AM 52.4266 -17.9445 282° West  Level Estimated
08:53AM 52.4515 -18.1395 282° West  Level Estimated
08:54AM 52.4761 -18.3347 282° West  Level Estimated
08:55AM 52.5003 -18.5301 282° West  Level Estimated
08:56AM 52.5242 -18.7258 281° West  Level Estimated
08:57AM 52.5478 -18.9216 281° West  Level Estimated
08:58AM 52.5711 -19.1177 281° West  Level Estimated
08:59AM 52.5940 -19.3140 281° West  Level Estimated
09:00AM 52.6166 -19.5105 281° West  Level Estimated
09:01AM 52.6390 -19.7071 281° West  Level Estimated
09:02AM 52.6609 -19.9040 281° West  Level Estimated
09:03AM 52.6826 -20.1011 280° West  Level Estimated
09:03AM 52.0000 -20.0000 265° West 453 521 35,000  Level ETMS Enhanced Traffic Management System
09:04AM 52.7039 -20.2984 280° West  Level Estimated
09:05AM 52.7249 -20.4958 280° West  Level Estimated
09:06AM 52.7455 -20.6935 280° West  Level Estimated
09:07AM 52.7659 -20.8913 280° West  Level Estimated
09:08AM 52.7859 -21.0893 280° West  Level Estimated
09:09AM 52.8055 -21.2875 279° West  Level Estimated
09:10AM 51.8686 -22.0324 263° West 453 521 35,000  Level FlightAware Transoceanic
09:11AM 51.8535 -22.2350 263° West 453 521 35,000  Level FlightAware Transoceanic
09:12AM 51.8381 -22.4374 263° West 453 521 35,000  Level FlightAware Transoceanic
09:13AM 51.8224 -22.6397 263° West 453 521 35,000  Level FlightAware Transoceanic
09:14AM 51.8063 -22.8418 263° West 453 521 35,000  Level FlightAware Transoceanic
09:15AM 51.7898 -23.0438 262° West 453 521 35,000  Level FlightAware Transoceanic
09:16AM 51.7730 -23.2456 262° West 453 521 35,000  Level FlightAware Transoceanic
09:17AM 51.7559 -23.4473 262° West 453 521 35,000  Level FlightAware Transoceanic
09:18AM 51.7384 -23.6488 262° West 453 521 35,000  Level FlightAware Transoceanic
09:19AM 51.7206 -23.8502 262° West 453 521 35,000  Level FlightAware Transoceanic
09:20AM 51.7024 -24.0514 262° West 453 521 35,000  Level FlightAware Transoceanic
09:21AM 51.6839 -24.2525 261° West 453 521 35,000  Level FlightAware Transoceanic
09:22AM 51.6650 -24.4534 261° West 453 521 35,000  Level FlightAware Transoceanic
09:23AM 51.6458 -24.6541 261° West 453 521 35,000  Level FlightAware Transoceanic
09:24AM 51.6263 -24.8546 261° West 453 521 35,000  Level FlightAware Transoceanic
09:25AM 51.6064 -25.0550 261° West 453 521 35,000  Level FlightAware Transoceanic
09:26AM 51.5861 -25.2552 261° West 453 521 35,000  Level FlightAware Transoceanic
09:27AM 51.5656 -25.4552 261° West 453 521 35,000  Level FlightAware Transoceanic
09:28AM 51.5447 -25.6550 260° West 453 521 35,000  Level FlightAware Transoceanic
09:29AM 51.5234 -25.8547 260° West 453 521 35,000  Level FlightAware Transoceanic
09:30AM 51.5018 -26.0541 260° West 453 521 35,000  Level FlightAware Transoceanic
09:31AM 51.4799 -26.2534 260° West 453 521 35,000  Level FlightAware Transoceanic
09:32AM 51.4576 -26.4525 260° West 453 521 35,000  Level FlightAware Transoceanic
09:33AM 51.4351 -26.6514 260° West 453 521 35,000  Level FlightAware Transoceanic
09:34AM 51.4121 -26.8500 259° West 453 521 35,000  Level FlightAware Transoceanic
09:35AM 51.3889 -27.0485 259° West 453 521 35,000  Level FlightAware Transoceanic
09:36AM 51.3652 -27.2468 259° West 453 521 35,000  Level FlightAware Transoceanic
09:37AM 51.3413 -27.4449 259° West 453 521 35,000  Level FlightAware Transoceanic
09:38AM 51.3170 -27.6427 259° West 453 521 35,000  Level FlightAware Transoceanic
09:39AM 51.2924 -27.8404 259° West 453 521 35,000  Level FlightAware Transoceanic
09:40AM 51.2675 -28.0378 259° West 453 521 35,000  Level FlightAware Transoceanic
09:41AM 51.2422 -28.2351 258° West 453 521 35,000  Level FlightAware Transoceanic
09:42AM 51.2166 -28.4321 258° West 453 521 35,000  Level FlightAware Transoceanic
09:43AM 51.1907 -28.6289 258° West 453 521 35,000  Level FlightAware Transoceanic
09:44AM 51.1644 -28.8254 258° West 453 521 35,000  Level FlightAware Transoceanic
09:45AM 51.1379 -29.0218 258° West 453 521 35,000  Level FlightAware Transoceanic
09:46AM 51.1109 -29.2179 258° West 453 521 35,000  Level FlightAware Transoceanic
09:47AM 51.0837 -29.4138 257° West 453 521 35,000  Level FlightAware Transoceanic
09:48AM 51.0561 -29.6094 257° West 453 521 35,000  Level FlightAware Transoceanic
09:49AM 51.0282 -29.8048 257° West 453 521 35,000  Level FlightAware Transoceanic
09:50AM 51.0010 -29.9930 257° West  Level FlightAware Approximate
09:51AM 50.9736 -30.1809 257° West  Level FlightAware Approximate
09:52AM 50.9718 -30.1728 256° West  Level FlightAware Approximate
09:52AM 51.0000 -30.0000 257° West 474 545 35,000  Level ETMS Enhanced Traffic Management System
09:52AM 51.0000 -30.0000 257° West 474 545 35,000  Level ETMS Enhanced Traffic Management System
09:53AM 50.9410 -30.3593 255° West  Level FlightAware Approximate
09:54AM 50.9099 -30.5455 255° West  Level FlightAware Approximate
09:55AM 50.8785 -30.7315 255° West  Level FlightAware Approximate
09:56AM 50.8468 -30.9173 255° West  Level FlightAware Approximate
09:57AM 50.8148 -31.1028 255° West  Level FlightAware Approximate
09:58AM 50.7773 -31.4202 255° West 474 545 35,000  Level FlightAware Transoceanic
09:59AM 50.7441 -31.6219 255° West 474 545 35,000  Level FlightAware Transoceanic
10:00AM 50.7106 -31.8234 255° West 474 545 35,000  Level FlightAware Transoceanic
10:01AM 50.6767 -32.0246 255° West 474 545 35,000  Level FlightAware Transoceanic
10:02AM 50.6424 -32.2255 255° West 474 545 35,000  Level FlightAware Transoceanic
10:03AM 50.6078 -32.4261 255° West 474 545 35,000  Level FlightAware Transoceanic
10:04AM 50.5729 -32.6264 255° West 474 545 35,000  Level FlightAware Transoceanic
10:05AM 50.5376 -32.8264 254° West 474 545 35,000  Level FlightAware Transoceanic
10:06AM 50.5020 -33.0261 254° West 474 545 35,000  Level FlightAware Transoceanic
10:07AM 50.4660 -33.2255 254° West 474 545 35,000  Level FlightAware Transoceanic
10:08AM 50.4297 -33.4245 254° West 474 545 35,000  Level FlightAware Transoceanic
10:09AM 50.3930 -33.6233 254° West 474 545 35,000  Level FlightAware Transoceanic
10:10AM 50.3560 -33.8218 254° West 474 545 35,000  Level FlightAware Transoceanic
10:11AM 50.3187 -34.0200 253° West 474 545 35,000  Level FlightAware Transoceanic
10:12AM 50.2811 -34.2178 253° West 474 545 35,000  Level FlightAware Transoceanic
10:13AM 50.2431 -34.4154 253° West 474 545 35,000  Level FlightAware Transoceanic
10:14AM 50.2048 -34.6126 253° West 474 545 35,000  Level FlightAware Transoceanic
10:15AM 50.1661 -34.8095 253° West 474 545 35,000  Level FlightAware Transoceanic
10:16AM 50.1271 -35.0061 253° West 474 545 35,000  Level FlightAware Transoceanic
10:17AM 50.0878 -35.2024 253° West 474 545 35,000  Level FlightAware Transoceanic
10:18AM 50.0481 -35.3983 252° West 474 545 35,000  Level FlightAware Transoceanic
10:19AM 50.0081 -35.5939 252° West 474 545 35,000  Level FlightAware Transoceanic
10:20AM 49.9678 -35.7892 252° West 474 545 35,000  Level FlightAware Transoceanic
10:21AM 49.9272 -35.9842 252° West 474 545 35,000  Level FlightAware Transoceanic
10:22AM 49.8862 -36.1788 252° West 474 545 35,000  Level FlightAware Transoceanic
10:23AM 49.8449 -36.3731 252° West 474 545 35,000  Level FlightAware Transoceanic
10:24AM 49.8033 -36.5671 252° West 474 545 35,000  Level FlightAware Transoceanic
10:25AM 49.7614 -36.7607 251° West 474 545 35,000  Level FlightAware Transoceanic
10:26AM 49.7191 -36.9540 251° West 474 545 35,000  Level FlightAware Transoceanic
10:27AM 49.6765 -37.1470 251° West 474 545 35,000  Level FlightAware Transoceanic
10:28AM 49.6336 -37.3396 251° West 474 545 35,000  Level FlightAware Transoceanic
10:29AM 49.5904 -37.5319 251° West 474 545 35,000  Level FlightAware Transoceanic
10:30AM 49.5469 -37.7238 251° West 474 545 35,000  Level FlightAware Transoceanic
10:31AM 49.5030 -37.9154 251° West 474 545 35,000  Level FlightAware Transoceanic
10:32AM 49.4589 -38.1067 250° West 474 545 35,000  Level FlightAware Transoceanic
10:33AM 49.4144 -38.2976 250° West 474 545 35,000  Level FlightAware Transoceanic
10:34AM 49.3696 -38.4882 250° West 474 545 35,000  Level FlightAware Transoceanic
10:35AM 49.3245 -38.6784 250° West 474 545 35,000  Level FlightAware Transoceanic
10:36AM 49.2790 -38.8682 250° West 474 545 35,000  Level FlightAware Transoceanic
10:37AM 49.2333 -39.0577 250° West 474 545 35,000  Level FlightAware Transoceanic
10:38AM 49.1872 -39.2469 249° West 474 545 35,000  Level FlightAware Transoceanic
10:39AM 49.1409 -39.4357 249° West 474 545 35,000  Level FlightAware Transoceanic
10:40AM 49.0942 -39.6242 249° West 474 545 35,000  Level FlightAware Transoceanic
10:41AM 49.0473 -39.8123 249° West 474 545 35,000  Level FlightAware Transoceanic
10:42AM 49.0037 -39.9852 249° West  Level FlightAware Approximate
10:43AM 48.9599 -40.1578 249° West  Level FlightAware Approximate
10:44AM 48.9775 -40.1494 257° West  Level FlightAware Approximate
10:44AM 49.0000 -40.0000 257° West 465 535 35,000  Level ETMS Enhanced Traffic Management System
10:45AM 48.9500 -40.3296 257° West  Level FlightAware Approximate
10:46AM 48.9223 -40.5096 257° West  Level FlightAware Approximate
10:47AM 48.8943 -40.6894 257° West  Level FlightAware Approximate
10:48AM 48.8660 -40.8690 257° West  Level FlightAware Approximate
10:49AM 48.8374 -41.0484 256° West  Level FlightAware Approximate
10:50AM 48.7906 -41.3385 256° West 465 535 35,000  Level FlightAware Transoceanic
10:51AM 48.7594 -41.5288 256° West 465 535 35,000  Level FlightAware Transoceanic
10:52AM 48.7280 -41.7188 256° West 465 535 35,000  Level FlightAware Transoceanic
10:53AM 48.6962 -41.9086 256° West 465 535 35,000  Level FlightAware Transoceanic
10:54AM 48.6640 -42.0982 256° West 465 535 35,000  Level FlightAware Transoceanic
10:55AM 48.6316 -42.2875 255° West 465 535 35,000  Level FlightAware Transoceanic
10:56AM 48.5989 -42.4766 255° West 465 535 35,000  Level FlightAware Transoceanic
10:57AM 48.5658 -42.6654 255° West 465 535 35,000  Level FlightAware Transoceanic
10:58AM 48.5325 -42.8540 255° West 465 535 35,000  Level FlightAware Transoceanic
10:59AM 48.4989 -43.0424 255° West 465 535 35,000  Level FlightAware Transoceanic
11:00AM 48.4649 -43.2305 255° West 465 535 35,000  Level FlightAware Transoceanic
11:01AM 48.4306 -43.4183 255° West 465 535 35,000  Level FlightAware Transoceanic
11:02AM 48.3960 -43.6059 254° West 465 535 35,000  Level FlightAware Transoceanic
11:03AM 48.3612 -43.7932 254° West 465 535 35,000  Level FlightAware Transoceanic
11:04AM 48.3260 -43.9803 254° West 465 535 35,000  Level FlightAware Transoceanic
11:05AM 48.2905 -44.1671 254° West 465 535 35,000  Level FlightAware Transoceanic
11:06AM 48.2547 -44.3536 254° West 465 535 35,000  Level FlightAware Transoceanic
11:07AM 48.2186 -44.5399 254° West 465 535 35,000  Level FlightAware Transoceanic
11:08AM 48.1822 -44.7259 254° West 465 535 35,000  Level FlightAware Transoceanic
11:09AM 48.1455 -44.9117 253° West 465 535 35,000  Level FlightAware Transoceanic
11:10AM 48.1086 -45.0972 253° West 465 535 35,000  Level FlightAware Transoceanic
11:11AM 48.0713 -45.2824 253° West 465 535 35,000  Level FlightAware Transoceanic
11:12AM 48.0337 -45.4674 253° West 465 535 35,000  Level FlightAware Transoceanic
11:13AM 47.9958 -45.6520 253° West 465 535 35,000  Level FlightAware Transoceanic
11:14AM 47.9576 -45.8364 253° West 465 535 35,000  Level FlightAware Transoceanic
11:15AM 47.9192 -46.0206 253° West 465 535 35,000  Level FlightAware Transoceanic
11:16AM 47.8804 -46.2044 252° West 465 535 35,000  Level FlightAware Transoceanic
11:17AM 47.8414 -46.3880 252° West 465 535 35,000  Level FlightAware Transoceanic
11:18AM 47.8020 -46.5713 252° West 465 535 35,000  Level FlightAware Transoceanic
11:19AM 47.7624 -46.7544 252° West 465 535 35,000  Level FlightAware Transoceanic
11:20AM 47.7224 -46.9371 252° West 465 535 35,000  Level FlightAware Transoceanic
11:21AM 47.6822 -47.1196 252° West 465 535 35,000  Level FlightAware Transoceanic
11:22AM 47.6417 -47.3018 252° West 465 535 35,000  Level FlightAware Transoceanic
11:23AM 47.6009 -47.4837 252° West 465 535 35,000  Level FlightAware Transoceanic
11:24AM 47.5598 -47.6653 251° West 465 535 35,000  Level FlightAware Transoceanic
11:25AM 47.5185 -47.8466 251° West 465 535 35,000  Level FlightAware Transoceanic
11:26AM 47.4768 -48.0277 251° West 465 535 35,000  Level FlightAware Transoceanic
11:27AM 47.4349 -48.2085 251° West 465 535 35,000  Level FlightAware Transoceanic
11:28AM 47.3926 -48.3889 251° West 465 535 35,000  Level FlightAware Transoceanic
11:29AM 47.3501 -48.5691 251° West 465 535 35,000  Level FlightAware Transoceanic
11:30AM 47.3073 -48.7490 251° West 465 535 35,000  Level FlightAware Transoceanic
11:31AM 47.2643 -48.9286 250° West 465 535 35,000  Level FlightAware Transoceanic
11:32AM 47.2209 -49.1079 250° West 465 535 35,000  Level FlightAware Transoceanic
11:33AM 47.1773 -49.2869 250° West 465 535 35,000  Level FlightAware Transoceanic
11:33AM 47.1710 -49.3120 250° West 464 534 35,000  Level FlightAware
11:33AM 47.1380 -49.4460 250° West 462 532 35,000  Level FlightAware
11:34AM 47.1090 -49.5640 250° West 460 529 35,000  Level FlightAware
11:35AM 47.0760 -49.6970 250° West 459 528 35,000  Level FlightAware
11:35AM 47.0470 -49.8130 250° West 461 531 35,000  Level FlightAware
11:36AM 47.0240 -49.9050 250° West 461 531 35,000  Level FlightAware
11:37AM 46.9930 -50.0210 249° West 461 531 35,000  Level FlightAware
11:37AM 46.9670 -50.1210 249° West 461 531 35,000  Level FlightAware
11:38AM 47.0000 -50.0000 259° West 416 479 35,000  Level ETMS Enhanced Traffic Management System
11:38AM 46.9350 -50.2450 249° West 461 531 35,000  Level FlightAware
11:39AM 46.9090 -50.3440 249° West 461 531 35,000  Level FlightAware
11:40AM 46.8830 -50.4430 249° West 461 531 35,000  Level FlightAware
11:40AM 46.8570 -50.5420 249° West 461 531 35,000  Level FlightAware
11:41AM 46.8310 -50.6410 249° West 461 531 35,000  Level FlightAware
11:42AM 46.7980 -50.7640 249° West 461 531 35,000  Level FlightAware
11:42AM 46.7720 -50.8630 249° West 461 531 35,000 300 Level FlightAware
11:43AM 46.9730 -51.1310 318° Northwest 447 514 35,300 600 Climbing FlightAware
11:43AM 46.9770 -51.2510 259° West 446 513 35,600 480 Climbing FlightAware
11:44AM 46.9810 -51.3740 273° West 443 510 36,000 240 Climbing FlightAware
11:45AM 46.9840 -51.4960 272° West 440 506 36,000  Level FlightAware
11:45AM 46.9890 -51.6410 273° West 439 505 36,000  Level FlightAware
11:46AM 46.9920 -51.7410 273° West 440 506 36,000  Level FlightAware
11:47AM 46.9950 -51.8610 272° West 442 509 36,000  Level FlightAware
11:47AM 46.9980 -51.9820 272° West 444 511 36,000  Level FlightAware
11:48AM 47.0010 -52.1020 272° West 445 512 36,000  Level FlightAware
11:49AM 47.0050 -52.2400 272° West 447 514 36,000  Level FlightAware
11:50AM 47.0080 -52.3710 272° West 448 516 36,000  Level FlightAware
11:50AM 47.0110 -52.4960 272° West 449 517 36,000  Level FlightAware
11:51AM 47.0130 -52.6160 271° West 449 517 36,000  Level FlightAware
11:52AM 47.0160 -52.7540 272° West 450 518 36,000  Level FlightAware
11:52AM 47.0180 -52.8780 271° West 451 519 36,000  Level FlightAware
11:53AM 47.0210 -52.9990 272° West 451 519 36,000  Level FlightAware
11:54AM 47.0230 -53.1330 271° West 450 518 36,000  Level FlightAware
11:54AM 47.0250 -53.2550 271° West 449 517 36,000  Level FlightAware
11:55AM 47.0270 -53.3930 271° West 448 516 36,000  Level FlightAware
11:56AM 47.0280 -53.5130 271° West 448 516 36,000  Level FlightAware
11:56AM 47.0300 -53.6360 271° West 447 514 36,000  Level FlightAware
11:57AM 47.0310 -53.7670 271° West 445 512 36,000  Level FlightAware
11:58AM 47.0320 -53.8750 271° West 444 511 36,000  Level FlightAware
11:59AM 47.0340 -54.0250 271° West 443 510 36,000  Level FlightAware
11:59AM 47.0350 -54.1450 271° West 442 509 36,000  Level FlightAware
12:00PM 47.0360 -54.2640 271° West 442 509 36,000  Level FlightAware
12:01PM 47.0360 -54.3950 270° West 440 506 36,000  Level FlightAware
12:01PM 47.0370 -54.5140 271° West 439 505 36,000  Level FlightAware
12:02PM 47.0370 -54.6500 270° West 438 504 36,000  Level FlightAware
12:03PM 47.0380 -54.7620 271° West 437 503 36,000  Level FlightAware
12:04PM 47.0380 -54.9000 270° West 436 502 36,000  Level FlightAware
12:04PM 47.0380 -54.9860 270° West 435 501 36,000  Level FlightAware
12:05PM 47.0380 -55.1130 270° West 434 499 36,000  Level FlightAware
12:05PM 47.0380 -55.2390 270° West 432 497 36,000  Level FlightAware
12:06PM 47.0370 -55.3800 269° West 36,000  Level FlightAware
12:07PM 47.0360 -55.5230 269° West 430 495 36,000  Level FlightAware
12:08PM 47.0350 -55.6230 269° West 430 495 36,000  Level FlightAware
12:09PM 47.0340 -55.7220 269° West 430 495 36,000  Level FlightAware
12:09PM 47.0320 -55.8460 269° West 430 495 36,000  Level FlightAware
12:10PM 47.0310 -55.9450 269° West 430 495 36,000  Level FlightAware
12:11PM 47.0300 -56.0440 269° West 430 495 36,000  Level FlightAware
12:11PM 47.0290 -56.1440 269° West 430 495 36,000  Level FlightAware
12:12PM 47.0280 -56.2430 269° West 430 495 36,000  Level FlightAware
12:13PM 47.0260 -56.3420 268° West 430 495 36,000  Level FlightAware
12:14PM 47.0250 -56.4660 269° West 430 495 36,000  Level FlightAware
12:14PM 47.0240 -56.5650 269° West 430 495 36,000  Level FlightAware
12:15PM 47.0230 -56.6640 269° West 430 495 36,000  Level FlightAware
12:16PM 47.0210 -56.7640 268° West 430 495 36,000  Level FlightAware
12:16PM 47.0200 -56.8630 269° West 430 495 36,000  Level FlightAware
12:19PM 47.0090 -57.5850 269° West 424 488 36,000  Level FlightAware
12:20PM 47.0050 -57.7310 268° West 425 489 36,000  Level FlightAware
12:21PM 47.0010 -57.8650 268° West 425 489 36,000  Level FlightAware
12:21PM 46.9990 -57.9960 269° West 426 490 36,000  Level FlightAware
12:22PM 46.9950 -58.1100 267° West 426 490 36,000  Level FlightAware
12:23PM 46.9920 -58.2390 268° West 426 490 36,000  Level FlightAware
12:24PM 46.9890 -58.3560 268° West 426 490 36,000  Level FlightAware
12:24PM 46.9850 -58.4840 267° West 425 489 36,000  Level FlightAware
12:25PM 46.9810 -58.5990 267° West 423 487 36,000  Level FlightAware
12:26PM 46.9770 -58.7110 267° West 420 483 36,000  Level FlightAware
12:26PM 46.9730 -58.8400 267° West 417 480 36,000  Level FlightAware
12:27PM 46.9690 -58.9540 267° West 415 478 36,000  Level FlightAware
12:28PM 46.9650 -59.0670 267° West 413 475 36,000  Level FlightAware
12:28PM 46.9610 -59.1890 267° West 412 474 36,000  Level FlightAware
12:29PM 46.9570 -59.2980 267° West 410 472 36,000  Level FlightAware
12:30PM 46.9530 -59.4090 267° West 410 472 36,000  Level FlightAware
12:31PM 46.9480 -59.5350 267° West 410 472 36,000  Level FlightAware
12:31PM 46.9430 -59.6470 266° West 410 472 36,000  Level FlightAware
12:32PM 46.9380 -59.7690 267° West 409 471 36,000  Level FlightAware
12:33PM 46.9330 -59.8800 266° West 409 471 36,000  Level FlightAware
12:33PM 46.9280 -60.0040 267° West 409 471 36,000  Level FlightAware
12:34PM 46.9230 -60.1160 266° West 409 471 36,000  Level FlightAware
12:35PM 46.9180 -60.2270 266° West 409 471 36,000  Level FlightAware
12:35PM 46.9130 -60.3470 267° West 408 470 36,000  Level FlightAware
12:36PM 46.9050 -60.5020 266° West 409 471 36,000  Level FlightAware
12:37PM 46.9000 -60.6110 266° West 410 472 36,000  Level FlightAware
12:38PM 46.8940 -60.7330 266° West 411 473 36,000  Level FlightAware
12:38PM 46.8880 -60.8440 266° West 410 472 36,000  Level FlightAware
12:39PM 46.8820 -60.9720 266° West 411 473 36,000  Level FlightAware
12:40PM 46.8760 -61.0790 265° West 411 473 36,000  Level FlightAware
12:41PM 46.8700 -61.1920 266° West 410 472 36,000  Level FlightAware
12:41PM 46.8630 -61.3140 265° West 410 472 36,000  Level FlightAware
12:42PM 46.8550 -61.4630 266° West 409 471 36,000  Level FlightAware
12:43PM 46.8480 -61.5750 265° West 410 472 36,000  Level FlightAware
12:44PM 46.8410 -61.6960 265° West 409 471 36,000  Level FlightAware
12:45PM 46.8320 -61.8400 265° West 409 471 36,000  Level FlightAware
12:45PM 46.8250 -61.9340 264° West 409 471 36,000  Level FlightAware
12:46PM 46.8180 -62.0270 264° West 409 471 36,000  Level FlightAware
12:47PM 46.8120 -62.1210 265° West 409 471 36,000  Level FlightAware
12:47PM 46.8050 -62.2140 264° West 409 471 36,000  Level FlightAware
12:48PM 46.7960 -62.3310 264° West 409 471 36,000  Level FlightAware
12:49PM 46.7900 -62.4250 265° West 409 471 36,000  Level FlightAware
12:49PM 46.7830 -62.5180 264° West 409 471 36,000  Level FlightAware
12:50PM 46.7760 -62.6120 264° West 409 471 36,000  Level FlightAware
12:51PM 46.7700 -62.7050 265° West 409 471 36,000  Level FlightAware
12:52PM 46.7610 -62.8220 264° West 409 471 36,000  Level FlightAware
12:52PM 46.7540 -62.9150 264° West 409 471 36,000  Level FlightAware
12:53PM 46.7480 -63.0090 265° West 409 471 36,000  Level FlightAware
12:54PM 46.7410 -63.1020 264° West 409 471 36,000  Level FlightAware
12:54PM 46.7000 -63.4167 264° West 400 460 36,000  Level Gander Center
12:55PM 46.7000 -63.6000 270° West 410 472 36,000  Level Gander Center
12:56PM 46.6833 -63.7333 260° West 400 460 36,000  Level Gander Center
12:57PM 46.6833 -63.9167 270° West 400 460 36,000  Level Gander Center
12:58PM 46.6667 -64.0833 262° West 400 460 36,000  Level Gander Center
12:59PM 46.6500 -64.2333 261° West 400 460 36,000  Level Gander Center
01:00PM 46.6333 -64.4000 262° West 400 460 36,000  Level Gander Center
01:01PM 46.6333 -64.5667 270° West 400 460 36,000  Level Moncton Center
01:02PM 46.6167 -64.7167 261° West 400 460 36,000  Level Moncton Center
01:03PM 46.6000 -64.8833 262° West 410 472 36,000  Level Moncton Center
01:04PM 46.5833 -65.0500 262° West 410 472 36,000  Level Moncton Center
01:05PM 46.5667 -65.2167 262° West 410 472 36,000  Level Moncton Center
01:06PM 46.5500 -65.3667 261° West 410 472 36,000  Level Moncton Center
01:07PM 46.5333 -65.5333 262° West 410 472 36,000  Level Moncton Center
01:08PM 46.5167 -65.7167 263° West 410 472 36,000  Level Moncton Center
01:15PM 46.4290 -66.7590 263° West 421 484 36,000  Level FlightAware
01:15PM 46.4200 -66.8540 262° West 421 484 36,000  Level FlightAware
01:16PM 46.4110 -66.9490 262° West 421 484 36,000  Level FlightAware
01:17PM 46.4020 -67.0440 262° West 421 484 36,000  Level FlightAware
01:17PM 46.3900 -67.1630 262° West 421 484 36,000  Level FlightAware
01:18PM 46.3660 -67.3430 259° West 425 489 36,000  Level FlightAware
01:19PM 46.3520 -67.4590 260° West 425 489 36,000  Level FlightAware
01:19PM 46.3400 -67.5550 260° West 425 489 36,000  Level FlightAware
01:20PM 46.3260 -67.6740 260° West 425 489 36,000  Level FlightAware
01:21PM 46.3100 -67.8470 262° West 428 493 36,000  Level FlightAware
01:22PM 46.2920 -67.9980 260° West 431 496 36,000  Level FlightAware
01:23PM 46.2770 -68.1270 260° West 432 497 36,000  Level FlightAware
01:23PM 46.2640 -68.2410 261° West 433 498 36,000  Level FlightAware
01:24PM 46.2510 -68.3510 260° West 433 498 36,000  Level FlightAware
01:25PM 46.2360 -68.4820 261° West 433 498 36,000  Level FlightAware
01:25PM 46.2220 -68.5950 260° West 432 497 36,000  Level FlightAware
01:26PM 46.2080 -68.7070 260° West 431 496 36,000  Level FlightAware
01:27PM 46.1920 -68.8340 260° West 430 495 36,000  Level FlightAware
01:27PM 46.1800 -68.9320 260° West 430 495 36,000  Level FlightAware
01:28PM 46.1650 -69.0590 260° West 431 496 36,000  Level FlightAware
01:29PM 46.1500 -69.1710 259° West 433 498 36,000  Level FlightAware
01:29PM 46.1360 -69.2850 260° West 434 499 36,000  Level FlightAware
01:30PM 46.1190 -69.4120 259° West 436 502 36,000  Level FlightAware
01:31PM 46.1050 -69.5260 260° West 438 504 36,000  Level FlightAware
01:32PM 46.0880 -69.6540 259° West 440 506 36,000  Level FlightAware
01:32PM 46.0730 -69.7710 260° West 442 509 36,000  Level FlightAware
01:33PM 46.0580 -69.8840 259° West 444 511 36,000  Level FlightAware
01:34PM 46.0400 -70.0150 259° West 445 512 36,000  Level FlightAware
01:34PM 46.0240 -70.1310 259° West 444 511 36,000  Level FlightAware
01:35PM 46.0070 -70.2600 259° West 445 512 36,000  Level FlightAware
01:36PM 45.9910 -70.3760 259° West 445 512 36,000  Level FlightAware
01:36PM 45.9750 -70.4910 259° West 445 512 36,000  Level FlightAware
01:37PM 45.9570 -70.6220 259° West 443 510 36,000  Level FlightAware
01:38PM 45.9410 -70.7360 259° West 443 510 36,000  Level FlightAware
01:39PM 45.9240 -70.8650 259° West 441 507 36,000  Level FlightAware
01:39PM 45.9130 -70.9810 262° West 439 505 36,000  Level FlightAware
01:40PM 45.9040 -71.0960 264° West 438 504 36,000 -660 Level FlightAware
01:41PM 45.8920 -71.2250 262° West 443 510 35,100 -1,080 Descending FlightAware
01:41PM 45.8820 -71.3390 263° West 432 497 34,500 -1,320 Descending FlightAware
01:42PM 45.8710 -71.4670 263° West 433 498 33,300 -1,440 Descending FlightAware
01:43PM 45.8610 -71.5800 263° West 422 486 32,500 -1,680 Descending FlightAware
01:43PM 45.8500 -71.6890 262° West 411 473 31,100 -2,220 Descending FlightAware
01:44PM 45.8390 -71.8070 262° West 399 459 29,400 -2,280 Descending FlightAware
01:45PM 45.8300 -71.9100 263° West 391 450 27,900 -2,280 Descending FlightAware
01:46PM 45.8190 -72.0240 262° West 380 437 26,200 -2,340 Descending FlightAware
01:46PM 45.8100 -72.1220 263° West 371 427 24,600 -2,400 Descending FlightAware
01:47PM 45.8000 -72.2180 262° West 364 419 23,000 -2,340 Descending FlightAware
01:48PM 45.7900 -72.3230 262° West 357 411 21,300 -2,280 Descending FlightAware
01:48PM 45.7810 -72.4170 262° West 353 406 19,800 -2,280 Descending FlightAware
01:49PM 45.7720 -72.5070 262° West 350 403 18,300 -2,700 Descending FlightAware
01:50PM 45.7610 -72.6150 262° West 358 412 16,000 -2,760 Descending FlightAware
01:50PM 45.7510 -72.7100 261° West 353 406 14,400 -2,280 Descending FlightAware
01:51PM 45.7410 -72.8100 262° West 348 400 12,800 -2,220 Descending FlightAware
01:52PM 45.7320 -72.9010 262° West 344 396 11,300 -1,860 Descending FlightAware
01:53PM 45.7200 -73.0160 262° West 324 373 9,900 -1,320 Descending FlightAware
01:53PM 45.7140 -73.0670 260° West 303 349 9,600 -480 Descending FlightAware
01:54PM 45.7080 -73.1250 262° West 274 315 9,500 -300 Descending FlightAware
01:54PM 45.7050 -73.1460 258° West 263 303 9,400 -1,080 Descending FlightAware
01:54PM 45.6960 -73.1960 256° West 261 300 8,700 -1,440 Descending FlightAware
01:55PM 45.6890 -73.2400 257° West 259 298 8,100 -1,380 Descending FlightAware
01:56PM 45.6760 -73.3150 256° West 255 293 7,100 -1,500 Descending FlightAware
01:56PM 45.6690 -73.3540 256° West 255 293 6,400 -1,680 Descending FlightAware
01:57PM 45.6620 -73.4000 258° West 251 289 5,600 -1,740 Descending FlightAware
01:57PM 45.6570 -73.4280 256° West 247 284 5,100 -1,380 Descending FlightAware
01:57PM 45.6490 -73.4730 256° West 229 264 4,600 -1,080 Descending FlightAware
01:58PM 45.6450 -73.4990 258° West 223 257 4,200 -1,200 Descending FlightAware
01:58PM 45.6380 -73.5280 251° West 221 254 3,800 -1,080 Descending FlightAware
01:58PM 45.6170 -73.5610 228° Southwest 213 245 3,300 -1,020 Descending FlightAware
01:59PM 45.5990 -73.5840 222° Southwest 206 237 2,900 -1,080 Descending FlightAware
01:59PM 45.5870 -73.6000 223° Southwest 194 223 2,600 -1,200 Descending FlightAware
02:00PM 45.5680 -73.6240 221° Southwest 184 212 2,000 -1,140 Descending FlightAware
02:00PM 45.5540 -73.6430 224° Southwest 179 206 1,600 -900 Descending FlightAware
02:01PM 45.5370 -73.6650 222° Southwest 165 190 1,200 -960 Descending FlightAware
02:01PM 45.5280 -73.6770 223° Southwest 150 173 900 -900 Descending FlightAware
02:01PM 45.5180 -73.6900 222° Southwest 145 167 700 -780 Descending FlightAware
02:02PM 45.5020 -73.7120 224° Southwest 135 155 200 -900 Descending FlightAware
02:02PM 45.4880 -73.7300 222° Southwest 132 152 -420 Descending FlightAware